Root, New York
Current Conditions -  °F | °C
As of 7:35 AM on Wednesday 26 Nov 2014 (Local Time) from KNY0 Reporting Station
Broken Clouds Broken Clouds  
Wind Chill: 32°   Ceiling: 11000
Heat Index: 32°   Visibility: 10mi
Dew Point: 26°   Wind: 0mph
Humidity: 78%   Direction: NA
Pressure: 30.2"   Gusts: NA
Location:  42.8384°N, 74.4592°W
Report Text: KNY0 261235Z AUTO 00000KT 10SM BKN110 00/M03 A3020 RMK AO2 T10011035
Loading
Personal Weather Stations






























Interactive Weather Map New forecast layout! Learn more

10-Day Weather Forecast

Advertisements
Track Severe Weather on mobile